sensor_id;sensor_type;location;lat;lon;timestamp;P1;durP1;ratioP1;P2;durP2;ratioP2
75408;SDS011;63979;55.644;37.734;2022-11-15T00:00:28;0.70;;;0.50;;
75408;SDS011;63979;55.644;37.734;2022-11-15T00:05:29;1.40;;;0.90;;
75408;SDS011;63979;55.644;37.734;2022-11-15T00:10:30;2.22;;;0.73;;
75408;SDS011;63979;55.644;37.734;2022-11-15T00:15:31;0.80;;;0.65;;
75408;SDS011;63979;55.644;37.734;2022-11-15T00:20:35;1.20;;;0.68;;
75408;SDS011;63979;55.644;37.734;2022-11-15T00:25:36;2.78;;;0.93;;
75408;SDS011;63979;55.644;37.734;2022-11-15T00:30:37;0.98;;;0.75;;
75408;SDS011;63979;55.644;37.734;2022-11-15T00:35:38;1.70;;;1.20;;
75408;SDS011;63979;55.644;37.734;2022-11-15T00:40:39;2.00;;;0.82;;
75408;SDS011;63979;55.644;37.734;2022-11-15T00:45:40;1.95;;;0.70;;
75408;SDS011;63979;55.644;37.734;2022-11-15T00:50:40;2.58;;;0.70;;
75408;SDS011;63979;55.644;37.734;2022-11-15T00:55:41;0.52;;;0.52;;
75408;SDS011;63979;55.644;37.734;2022-11-15T01:00:42;3.03;;;0.75;;
75408;SDS011;63979;55.644;37.734;2022-11-15T01:05:43;0.73;;;0.43;;
75408;SDS011;63979;55.644;37.734;2022-11-15T01:10:44;1.48;;;0.70;;
75408;SDS011;63979;55.644;37.734;2022-11-15T01:15:45;2.70;;;0.70;;
75408;SDS011;63979;55.644;37.734;2022-11-15T01:20:46;1.90;;;1.08;;
75408;SDS011;63979;55.644;37.734;2022-11-15T01:25:47;1.63;;;0.82;;
75408;SDS011;63979;55.644;37.734;2022-11-15T01:30:48;2.20;;;0.73;;
75408;SDS011;63979;55.644;37.734;2022-11-15T01:35:49;1.02;;;0.77;;
75408;SDS011;63979;55.644;37.734;2022-11-15T01:40:50;2.63;;;0.90;;
75408;SDS011;63979;55.644;37.734;2022-11-15T01:45:52;1.67;;;0.68;;
75408;SDS011;63979;55.644;37.734;2022-11-15T01:51:02;3.67;;;1.10;;
75408;SDS011;63979;55.644;37.734;2022-11-15T01:56:08;0.80;;;0.52;;
75408;SDS011;63979;55.644;37.734;2022-11-15T02:01:12;1.67;;;0.55;;
75408;SDS011;63979;55.644;37.734;2022-11-15T02:06:15;0.45;;;0.45;;
75408;SDS011;63979;55.644;37.734;2022-11-15T02:11:15;2.63;;;0.60;;
75408;SDS011;63979;55.644;37.734;2022-11-15T02:21:28;0.63;;;0.50;;
75408;SDS011;63979;55.644;37.734;2022-11-15T02:32:13;0.52;;;0.40;;
75408;SDS011;63979;55.644;37.734;2022-11-15T02:37:55;1.40;;;0.73;;
75408;SDS011;63979;55.644;37.734;2022-11-15T02:43:00;2.45;;;0.65;;
75408;SDS011;63979;55.644;37.734;2022-11-15T02:48:26;4.88;;;0.73;;
75408;SDS011;63979;55.644;37.734;2022-11-15T02:53:27;0.95;;;0.50;;
75408;SDS011;63979;55.644;37.734;2022-11-15T03:14:44;3.85;;;0.70;;
75408;SDS011;63979;55.644;37.734;2022-11-15T03:19:55;2.38;;;1.00;;
75408;SDS011;63979;55.644;37.734;2022-11-15T03:25:00;3.03;;;0.85;;
75408;SDS011;63979;55.644;37.734;2022-11-15T03:30:07;1.35;;;0.63;;
75408;SDS011;63979;55.644;37.734;2022-11-15T03:35:11;1.00;;;0.70;;
75408;SDS011;63979;55.644;37.734;2022-11-15T03:40:16;2.25;;;0.80;;
75408;SDS011;63979;55.644;37.734;2022-11-15T03:45:22;3.22;;;0.75;;
75408;SDS011;63979;55.644;37.734;2022-11-15T03:50:29;2.47;;;0.73;;
75408;SDS011;63979;55.644;37.734;2022-11-15T03:55:31;3.38;;;1.05;;
75408;SDS011;63979;55.644;37.734;2022-11-15T04:00:34;0.80;;;0.47;;
75408;SDS011;63979;55.644;37.734;2022-11-15T04:05:35;4.38;;;0.65;;
75408;SDS011;63979;55.644;37.734;2022-11-15T04:10:54;5.22;;;1.55;;
75408;SDS011;63979;55.644;37.734;2022-11-15T04:16:13;0.82;;;0.73;;
75408;SDS011;63979;55.644;37.734;2022-11-15T04:21:14;1.20;;;0.70;;
75408;SDS011;63979;55.644;37.734;2022-11-15T04:26:44;3.85;;;0.93;;
75408;SDS011;63979;55.644;37.734;2022-11-15T04:32:22;3.35;;;0.93;;
75408;SDS011;63979;55.644;37.734;2022-11-15T04:37:41;2.88;;;0.90;;
75408;SDS011;63979;55.644;37.734;2022-11-15T04:43:01;1.30;;;1.10;;
75408;SDS011;63979;55.644;37.734;2022-11-15T04:48:17;5.68;;;1.52;;
75408;SDS011;63979;55.644;37.734;2022-11-15T04:53:18;2.55;;;0.70;;
75408;SDS011;63979;55.644;37.734;2022-11-15T04:58:19;3.60;;;0.70;;
75408;SDS011;63979;55.644;37.734;2022-11-15T05:03:21;1.13;;;0.52;;
75408;SDS011;63979;55.644;37.734;2022-11-15T05:08:40;3.72;;;1.10;;
75408;SDS011;63979;55.644;37.734;2022-11-15T05:13:42;1.35;;;1.02;;
75408;SDS011;63979;55.644;37.734;2022-11-15T05:18:43;5.43;;;1.10;;
75408;SDS011;63979;55.644;37.734;2022-11-15T05:23:44;3.03;;;1.17;;
75408;SDS011;63979;55.644;37.734;2022-11-15T05:28:45;2.45;;;0.85;;
75408;SDS011;63979;55.644;37.734;2022-11-15T05:33:46;1.85;;;0.90;;
75408;SDS011;63979;55.644;37.734;2022-11-15T05:38:49;2.28;;;0.82;;
75408;SDS011;63979;55.644;37.734;2022-11-15T05:43:51;1.23;;;0.95;;
75408;SDS011;63979;55.644;37.734;2022-11-15T05:48:53;3.83;;;1.63;;
75408;SDS011;63979;55.644;37.734;2022-11-15T05:53:56;1.48;;;1.00;;
75408;SDS011;63979;55.644;37.734;2022-11-15T05:58:59;4.28;;;1.40;;
75408;SDS011;63979;55.644;37.734;2022-11-15T06:04:00;3.08;;;1.00;;
75408;SDS011;63979;55.644;37.734;2022-11-15T06:09:01;3.03;;;1.00;;
75408;SDS011;63979;55.644;37.734;2022-11-15T06:14:03;1.63;;;1.10;;
75408;SDS011;63979;55.644;37.734;2022-11-15T06:19:05;1.48;;;0.73;;
75408;SDS011;63979;55.644;37.734;2022-11-15T06:24:07;2.60;;;1.10;;
75408;SDS011;63979;55.644;37.734;2022-11-15T06:29:08;2.00;;;0.85;;
75408;SDS011;63979;55.644;37.734;2022-11-15T06:34:09;2.60;;;1.20;;
75408;SDS011;63979;55.644;37.734;2022-11-15T06:39:10;3.17;;;1.10;;
75408;SDS011;63979;55.644;37.734;2022-11-15T06:44:11;2.38;;;1.33;;
75408;SDS011;63979;55.644;37.734;2022-11-15T06:49:12;2.90;;;0.73;;
75408;SDS011;63979;55.644;37.734;2022-11-15T06:54:13;2.53;;;0.93;;
75408;SDS011;63979;55.644;37.734;2022-11-15T06:59:14;2.70;;;1.27;;
75408;SDS011;63979;55.644;37.734;2022-11-15T07:04:15;5.93;;;1.50;;
75408;SDS011;63979;55.644;37.734;2022-11-15T07:09:16;7.35;;;1.25;;
75408;SDS011;63979;55.644;37.734;2022-11-15T07:14:17;7.97;;;1.65;;
75408;SDS011;63979;55.644;37.734;2022-11-15T07:19:17;2.00;;;1.17;;
75408;SDS011;63979;55.644;37.734;2022-11-15T07:24:19;5.30;;;2.08;;
75408;SDS011;63979;55.644;37.734;2022-11-15T07:29:19;4.75;;;1.08;;
75408;SDS011;63979;55.644;37.734;2022-11-15T07:34:21;3.67;;;2.05;;
75408;SDS011;63979;55.644;37.734;2022-11-15T07:39:22;2.15;;;1.02;;
75408;SDS011;63979;55.644;37.734;2022-11-15T07:44:23;2.47;;;1.23;;
75408;SDS011;63979;55.644;37.734;2022-11-15T07:49:24;7.90;;;1.70;;
75408;SDS011;63979;55.644;37.734;2022-11-15T07:54:25;2.40;;;1.30;;
75408;SDS011;63979;55.644;37.734;2022-11-15T07:59:25;1.05;;;0.80;;
75408;SDS011;63979;55.644;37.734;2022-11-15T08:04:27;8.15;;;2.13;;
75408;SDS011;63979;55.644;37.734;2022-11-15T08:09:28;6.13;;;1.83;;
75408;SDS011;63979;55.644;37.734;2022-11-15T08:14:29;1.55;;;0.80;;
75408;SDS011;63979;55.644;37.734;2022-11-15T08:19:30;5.70;;;1.35;;
75408;SDS011;63979;55.644;37.734;2022-11-15T08:24:31;4.38;;;1.35;;
75408;SDS011;63979;55.644;37.734;2022-11-15T08:29:32;3.28;;;1.40;;
75408;SDS011;63979;55.644;37.734;2022-11-15T08:34:33;4.20;;;1.20;;
75408;SDS011;63979;55.644;37.734;2022-11-15T08:39:34;5.03;;;1.95;;
75408;SDS011;63979;55.644;37.734;2022-11-15T08:44:35;5.43;;;1.73;;
75408;SDS011;63979;55.644;37.734;2022-11-15T08:49:36;6.65;;;2.25;;
75408;SDS011;63979;55.644;37.734;2022-11-15T08:54:37;8.45;;;1.75;;
75408;SDS011;63979;55.644;37.734;2022-11-15T08:59:38;2.15;;;1.08;;
75408;SDS011;63979;55.644;37.734;2022-11-15T09:04:43;2.85;;;1.02;;
75408;SDS011;63979;55.644;37.734;2022-11-15T09:09:44;6.13;;;1.30;;
75408;SDS011;63979;55.644;37.734;2022-11-15T09:14:45;2.15;;;1.27;;
75408;SDS011;63979;55.644;37.734;2022-11-15T09:19:46;5.25;;;1.10;;
75408;SDS011;63979;55.644;37.734;2022-11-15T09:24:47;2.92;;;1.50;;
75408;SDS011;63979;55.644;37.734;2022-11-15T09:29:48;2.17;;;1.52;;
75408;SDS011;63979;55.644;37.734;2022-11-15T09:34:49;5.75;;;2.58;;
75408;SDS011;63979;55.644;37.734;2022-11-15T09:39:50;7.65;;;1.00;;
75408;SDS011;63979;55.644;37.734;2022-11-15T09:50:27;6.00;;;1.50;;
75408;SDS011;63979;55.644;37.734;2022-11-15T09:55:35;3.65;;;1.25;;
75408;SDS011;63979;55.644;37.734;2022-11-15T10:00:46;5.75;;;1.40;;
75408;SDS011;63979;55.644;37.734;2022-11-15T10:05:49;2.42;;;1.35;;
75408;SDS011;63979;55.644;37.734;2022-11-15T10:10:53;5.80;;;2.58;;
75408;SDS011;63979;55.644;37.734;2022-11-15T10:21:19;8.40;;;2.08;;
75408;SDS011;63979;55.644;37.734;2022-11-15T10:26:24;8.45;;;2.00;;
75408;SDS011;63979;55.644;37.734;2022-11-15T10:31:26;3.03;;;1.00;;
75408;SDS011;63979;55.644;37.734;2022-11-15T10:36:28;2.38;;;1.40;;
75408;SDS011;63979;55.644;37.734;2022-11-15T10:41:30;2.55;;;1.42;;
75408;SDS011;63979;55.644;37.734;2022-11-15T10:46:35;2.70;;;1.30;;
75408;SDS011;63979;55.644;37.734;2022-11-15T10:51:40;5.25;;;1.20;;
75408;SDS011;63979;55.644;37.734;2022-11-15T10:56:49;3.20;;;1.45;;
75408;SDS011;63979;55.644;37.734;2022-11-15T11:01:52;4.88;;;1.98;;
75408;SDS011;63979;55.644;37.734;2022-11-15T11:11:55;2.83;;;1.58;;
75408;SDS011;63979;55.644;37.734;2022-11-15T11:33:13;9.60;;;2.67;;
75408;SDS011;63979;55.644;37.734;2022-11-15T11:44:05;9.82;;;3.42;;
75408;SDS011;63979;55.644;37.734;2022-11-15T11:49:59;5.50;;;2.17;;
75408;SDS011;63979;55.644;37.734;2022-11-15T11:54:54;4.63;;;2.45;;
75408;SDS011;63979;55.644;37.734;2022-11-15T12:00:16;2.92;;;1.85;;
75408;SDS011;63979;55.644;37.734;2022-11-15T12:05:35;4.22;;;1.35;;
75408;SDS011;63979;55.644;37.734;2022-11-15T12:10:40;3.53;;;1.85;;
75408;SDS011;63979;55.644;37.734;2022-11-15T12:16:00;6.07;;;2.13;;
75408;SDS011;63979;55.644;37.734;2022-11-15T12:26:41;4.00;;;2.13;;
75408;SDS011;63979;55.644;37.734;2022-11-15T12:31:50;8.93;;;2.45;;
75408;SDS011;63979;55.644;37.734;2022-11-15T12:36:53;2.25;;;1.30;;
75408;SDS011;63979;55.644;37.734;2022-11-15T13:02:17;3.08;;;1.77;;
75408;SDS011;63979;55.644;37.734;2022-11-15T13:22:58;3.35;;;1.65;;
75408;SDS011;63979;55.644;37.734;2022-11-15T13:33:16;3.50;;;2.20;;
75408;SDS011;63979;55.644;37.734;2022-11-15T13:38:30;6.53;;;2.88;;
75408;SDS011;63979;55.644;37.734;2022-11-15T13:43:34;4.68;;;2.15;;
75408;SDS011;63979;55.644;37.734;2022-11-15T13:48:36;4.40;;;2.63;;
75408;SDS011;63979;55.644;37.734;2022-11-15T13:53:38;8.70;;;3.20;;
75408;SDS011;63979;55.644;37.734;2022-11-15T13:58:42;12.55;;;2.92;;
75408;SDS011;63979;55.644;37.734;2022-11-15T14:04:18;9.23;;;3.10;;
75408;SDS011;63979;55.644;37.734;2022-11-15T14:14:31;3.42;;;1.98;;
75408;SDS011;63979;55.644;37.734;2022-11-15T14:19:33;6.93;;;2.40;;
75408;SDS011;63979;55.644;37.734;2022-11-15T14:24:36;5.90;;;2.63;;
75408;SDS011;63979;55.644;37.734;2022-11-15T14:29:38;3.85;;;2.08;;
75408;SDS011;63979;55.644;37.734;2022-11-15T14:34:39;4.53;;;1.77;;
75408;SDS011;63979;55.644;37.734;2022-11-15T14:39:40;11.52;;;6.13;;
75408;SDS011;63979;55.644;37.734;2022-11-15T14:44:41;5.80;;;2.50;;
75408;SDS011;63979;55.644;37.734;2022-11-15T14:49:42;4.95;;;2.50;;
75408;SDS011;63979;55.644;37.734;2022-11-15T14:54:43;5.40;;;1.73;;
75408;SDS011;63979;55.644;37.734;2022-11-15T14:59:44;3.88;;;2.45;;
75408;SDS011;63979;55.644;37.734;2022-11-15T15:04:45;4.25;;;2.85;;
75408;SDS011;63979;55.644;37.734;2022-11-15T15:09:46;5.68;;;3.03;;
75408;SDS011;63979;55.644;37.734;2022-11-15T15:14:48;6.55;;;3.28;;
75408;SDS011;63979;55.644;37.734;2022-11-15T15:19:50;4.60;;;2.75;;
75408;SDS011;63979;55.644;37.734;2022-11-15T15:24:51;5.30;;;2.67;;
75408;SDS011;63979;55.644;37.734;2022-11-15T15:29:52;2.67;;;1.92;;
75408;SDS011;63979;55.644;37.734;2022-11-15T15:34:53;7.40;;;3.75;;
75408;SDS011;63979;55.644;37.734;2022-11-15T15:39:55;7.72;;;2.50;;
75408;SDS011;63979;55.644;37.734;2022-11-15T15:44:57;4.85;;;2.92;;
75408;SDS011;63979;55.644;37.734;2022-11-15T15:49:58;7.00;;;2.40;;
75408;SDS011;63979;55.644;37.734;2022-11-15T15:54:59;4.60;;;2.75;;
75408;SDS011;63979;55.644;37.734;2022-11-15T16:00:00;2.90;;;1.75;;
75408;SDS011;63979;55.644;37.734;2022-11-15T16:05:00;6.10;;;2.67;;
75408;SDS011;63979;55.644;37.734;2022-11-15T16:10:04;5.40;;;2.33;;
75408;SDS011;63979;55.644;37.734;2022-11-15T16:15:19;5.40;;;2.72;;
75408;SDS011;63979;55.644;37.734;2022-11-15T16:25:50;11.40;;;3.67;;
75408;SDS011;63979;55.644;37.734;2022-11-15T16:31:00;7.68;;;4.97;;
75408;SDS011;63979;55.644;37.734;2022-11-15T16:36:01;4.03;;;3.05;;
75408;SDS011;63979;55.644;37.734;2022-11-15T16:41:03;6.10;;;3.53;;
75408;SDS011;63979;55.644;37.734;2022-11-15T16:51:26;4.05;;;2.83;;
75408;SDS011;63979;55.644;37.734;2022-11-15T16:56:29;4.78;;;3.03;;
75408;SDS011;63979;55.644;37.734;2022-11-15T17:01:31;9.80;;;4.18;;
75408;SDS011;63979;55.644;37.734;2022-11-15T17:06:34;6.72;;;3.58;;
75408;SDS011;63979;55.644;37.734;2022-11-15T17:11:36;4.68;;;3.05;;
75408;SDS011;63979;55.644;37.734;2022-11-15T17:16:37;8.45;;;3.50;;
75408;SDS011;63979;55.644;37.734;2022-11-15T17:21:42;8.30;;;4.60;;
75408;SDS011;63979;55.644;37.734;2022-11-15T17:26:43;9.15;;;4.60;;
75408;SDS011;63979;55.644;37.734;2022-11-15T17:31:44;11.27;;;5.28;;
75408;SDS011;63979;55.644;37.734;2022-11-15T17:36:45;9.77;;;5.25;;
75408;SDS011;63979;55.644;37.734;2022-11-15T17:41:47;7.35;;;4.57;;
75408;SDS011;63979;55.644;37.734;2022-11-15T17:46:48;8.85;;;3.65;;
75408;SDS011;63979;55.644;37.734;2022-11-15T17:51:49;8.00;;;4.50;;
75408;SDS011;63979;55.644;37.734;2022-11-15T17:56:51;7.53;;;3.97;;
75408;SDS011;63979;55.644;37.734;2022-11-15T18:01:53;5.10;;;3.30;;
75408;SDS011;63979;55.644;37.734;2022-11-15T18:06:54;9.13;;;4.30;;
75408;SDS011;63979;55.644;37.734;2022-11-15T18:11:56;8.05;;;4.53;;
75408;SDS011;63979;55.644;37.734;2022-11-15T18:16:58;5.60;;;3.17;;
75408;SDS011;63979;55.644;37.734;2022-11-15T18:21:59;4.05;;;3.05;;
75408;SDS011;63979;55.644;37.734;2022-11-15T18:27:02;8.80;;;3.90;;
75408;SDS011;63979;55.644;37.734;2022-11-15T18:32:05;4.13;;;3.08;;
75408;SDS011;63979;55.644;37.734;2022-11-15T18:37:11;4.57;;;3.55;;
75408;SDS011;63979;55.644;37.734;2022-11-15T18:42:12;6.35;;;2.88;;
75408;SDS011;63979;55.644;37.734;2022-11-15T18:47:13;5.88;;;3.13;;
75408;SDS011;63979;55.644;37.734;2022-11-15T18:52:14;7.72;;;4.40;;
75408;SDS011;63979;55.644;37.734;2022-11-15T18:57:15;6.55;;;3.95;;
75408;SDS011;63979;55.644;37.734;2022-11-15T19:02:16;8.15;;;3.92;;
75408;SDS011;63979;55.644;37.734;2022-11-15T19:07:17;4.85;;;3.95;;
75408;SDS011;63979;55.644;37.734;2022-11-15T19:12:18;5.50;;;3.75;;
75408;SDS011;63979;55.644;37.734;2022-11-15T19:17:20;18.23;;;7.15;;
75408;SDS011;63979;55.644;37.734;2022-11-15T19:22:21;6.53;;;4.35;;
75408;SDS011;63979;55.644;37.734;2022-11-15T19:27:23;7.47;;;3.50;;
75408;SDS011;63979;55.644;37.734;2022-11-15T19:32:23;5.65;;;4.13;;
75408;SDS011;63979;55.644;37.734;2022-11-15T19:37:25;8.90;;;4.75;;
75408;SDS011;63979;55.644;37.734;2022-11-15T19:42:26;7.85;;;4.78;;
75408;SDS011;63979;55.644;37.734;2022-11-15T19:47:29;8.35;;;5.38;;
75408;SDS011;63979;55.644;37.734;2022-11-15T19:52:30;11.70;;;7.25;;
75408;SDS011;63979;55.644;37.734;2022-11-15T19:57:31;18.65;;;8.80;;
75408;SDS011;63979;55.644;37.734;2022-11-15T20:02:32;13.95;;;7.75;;
75408;SDS011;63979;55.644;37.734;2022-11-15T20:07:34;18.58;;;10.10;;
75408;SDS011;63979;55.644;37.734;2022-11-15T20:12:35;19.83;;;9.23;;
75408;SDS011;63979;55.644;37.734;2022-11-15T20:17:36;24.40;;;9.50;;
75408;SDS011;63979;55.644;37.734;2022-11-15T20:22:37;22.83;;;10.05;;
75408;SDS011;63979;55.644;37.734;2022-11-15T20:27:38;17.13;;;7.75;;
75408;SDS011;63979;55.644;37.734;2022-11-15T20:32:40;24.02;;;10.60;;
75408;SDS011;63979;55.644;37.734;2022-11-15T20:37:41;23.75;;;9.82;;
75408;SDS011;63979;55.644;37.734;2022-11-15T20:42:42;19.50;;;9.20;;
75408;SDS011;63979;55.644;37.734;2022-11-15T20:47:43;15.27;;;8.70;;
75408;SDS011;63979;55.644;37.734;2022-11-15T20:52:44;16.40;;;8.52;;
75408;SDS011;63979;55.644;37.734;2022-11-15T20:57:46;14.82;;;7.22;;
75408;SDS011;63979;55.644;37.734;2022-11-15T21:02:48;24.20;;;8.15;;
75408;SDS011;63979;55.644;37.734;2022-11-15T21:07:49;15.82;;;7.15;;
75408;SDS011;63979;55.644;37.734;2022-11-15T21:12:50;13.13;;;6.00;;
75408;SDS011;63979;55.644;37.734;2022-11-15T21:17:51;11.80;;;6.40;;
75408;SDS011;63979;55.644;37.734;2022-11-15T21:22:52;14.00;;;6.38;;
75408;SDS011;63979;55.644;37.734;2022-11-15T21:27:53;14.57;;;6.05;;
75408;SDS011;63979;55.644;37.734;2022-11-15T21:32:55;15.02;;;7.25;;
75408;SDS011;63979;55.644;37.734;2022-11-15T21:37:56;19.13;;;7.20;;
75408;SDS011;63979;55.644;37.734;2022-11-15T21:42:57;12.38;;;7.40;;
75408;SDS011;63979;55.644;37.734;2022-11-15T21:47:58;11.85;;;5.85;;
75408;SDS011;63979;55.644;37.734;2022-11-15T21:52:59;17.23;;;7.00;;
75408;SDS011;63979;55.644;37.734;2022-11-15T21:58:01;10.80;;;6.30;;
75408;SDS011;63979;55.644;37.734;2022-11-15T22:03:02;14.23;;;6.60;;
75408;SDS011;63979;55.644;37.734;2022-11-15T22:08:03;10.48;;;6.40;;
75408;SDS011;63979;55.644;37.734;2022-11-15T22:13:04;10.77;;;5.15;;
75408;SDS011;63979;55.644;37.734;2022-11-15T22:18:06;11.52;;;5.43;;
75408;SDS011;63979;55.644;37.734;2022-11-15T22:23:07;8.90;;;5.78;;
75408;SDS011;63979;55.644;37.734;2022-11-15T22:28:08;11.63;;;5.18;;
75408;SDS011;63979;55.644;37.734;2022-11-15T22:33:09;9.10;;;5.30;;
75408;SDS011;63979;55.644;37.734;2022-11-15T22:38:10;12.35;;;4.82;;
75408;SDS011;63979;55.644;37.734;2022-11-15T22:43:12;11.32;;;4.88;;
75408;SDS011;63979;55.644;37.734;2022-11-15T22:48:14;10.02;;;5.35;;
75408;SDS011;63979;55.644;37.734;2022-11-15T22:53:16;14.38;;;5.88;;
75408;SDS011;63979;55.644;37.734;2022-11-15T22:58:19;9.45;;;5.50;;
75408;SDS011;63979;55.644;37.734;2022-11-15T23:03:22;6.95;;;3.30;;
75408;SDS011;63979;55.644;37.734;2022-11-15T23:08:24;13.40;;;5.10;;
75408;SDS011;63979;55.644;37.734;2022-11-15T23:13:26;11.00;;;5.50;;
75408;SDS011;63979;55.644;37.734;2022-11-15T23:23:33;10.82;;;5.35;;
75408;SDS011;63979;55.644;37.734;2022-11-15T23:28:34;12.23;;;5.22;;
75408;SDS011;63979;55.644;37.734;2022-11-15T23:33:36;8.95;;;5.35;;
75408;SDS011;63979;55.644;37.734;2022-11-15T23:38:57;10.57;;;5.78;;
75408;SDS011;63979;55.644;37.734;2022-11-15T23:43:58;16.17;;;6.75;;
75408;SDS011;63979;55.644;37.734;2022-11-15T23:49:00;13.27;;;5.63;;
75408;SDS011;63979;55.644;37.734;2022-11-15T23:54:01;8.32;;;5.82;;
75408;SDS011;63979;55.644;37.734;2022-11-15T23:59:03;11.75;;;7.13;;
